sensor_id;sensor_type;location;lat;lon;timestamp;P1;durP1;ratioP1;P2;durP2;ratioP2
23310;SDS011;11828;51.508;18.118;2022-08-01T00:01:22;6.00;;;3.50;;
23310;SDS011;11828;51.508;18.118;2022-08-01T00:03:48;5.18;;;3.50;;
23310;SDS011;11828;51.508;18.118;2022-08-01T00:06:14;4.90;;;3.40;;
23310;SDS011;11828;51.508;18.118;2022-08-01T00:08:40;6.07;;;4.00;;
23310;SDS011;11828;51.508;18.118;2022-08-01T00:11:06;4.93;;;3.80;;
23310;SDS011;11828;51.508;18.118;2022-08-01T00:13:34;5.43;;;3.85;;
23310;SDS011;11828;51.508;18.118;2022-08-01T00:16:00;5.47;;;3.70;;
23310;SDS011;11828;51.508;18.118;2022-08-01T00:18:27;5.22;;;3.92;;
23310;SDS011;11828;51.508;18.118;2022-08-01T00:20:52;5.45;;;3.78;;
23310;SDS011;11828;51.508;18.118;2022-08-01T00:23:19;6.30;;;4.20;;
23310;SDS011;11828;51.508;18.118;2022-08-01T00:25:45;7.63;;;4.95;;
23310;SDS011;11828;51.508;18.118;2022-08-01T00:28:11;7.28;;;4.65;;
23310;SDS011;11828;51.508;18.118;2022-08-01T00:30:38;5.95;;;4.40;;
23310;SDS011;11828;51.508;18.118;2022-08-01T00:33:04;7.10;;;4.93;;
23310;SDS011;11828;51.508;18.118;2022-08-01T00:35:30;5.50;;;4.55;;
23310;SDS011;11828;51.508;18.118;2022-08-01T00:37:56;6.80;;;4.78;;
23310;SDS011;11828;51.508;18.118;2022-08-01T00:40:23;6.30;;;4.80;;
23310;SDS011;11828;51.508;18.118;2022-08-01T00:42:49;6.68;;;5.13;;
23310;SDS011;11828;51.508;18.118;2022-08-01T00:45:15;6.97;;;5.32;;
23310;SDS011;11828;51.508;18.118;2022-08-01T00:47:41;8.68;;;5.45;;
23310;SDS011;11828;51.508;18.118;2022-08-01T00:50:07;8.35;;;4.90;;
23310;SDS011;11828;51.508;18.118;2022-08-01T00:52:34;6.20;;;4.70;;
23310;SDS011;11828;51.508;18.118;2022-08-01T00:55:00;8.02;;;4.95;;
23310;SDS011;11828;51.508;18.118;2022-08-01T00:57:26;8.85;;;5.85;;
23310;SDS011;11828;51.508;18.118;2022-08-01T00:59:53;8.52;;;5.57;;
23310;SDS011;11828;51.508;18.118;2022-08-01T01:02:19;8.23;;;5.97;;
23310;SDS011;11828;51.508;18.118;2022-08-01T01:04:45;11.70;;;5.97;;
23310;SDS011;11828;51.508;18.118;2022-08-01T01:10:02;8.05;;;5.45;;
23310;SDS011;11828;51.508;18.118;2022-08-01T01:12:38;7.90;;;5.38;;
23310;SDS011;11828;51.508;18.118;2022-08-01T01:15:29;8.45;;;5.28;;
23310;SDS011;11828;51.508;18.118;2022-08-01T01:18:14;8.07;;;5.28;;
23310;SDS011;11828;51.508;18.118;2022-08-01T01:20:58;6.82;;;4.75;;
23310;SDS011;11828;51.508;18.118;2022-08-01T01:34:52;6.90;;;5.07;;
23310;SDS011;11828;51.508;18.118;2022-08-01T01:37:20;8.50;;;5.90;;
23310;SDS011;11828;51.508;18.118;2022-08-01T01:39:49;7.60;;;5.80;;
23310;SDS011;11828;51.508;18.118;2022-08-01T01:42:18;9.75;;;5.80;;
23310;SDS011;11828;51.508;18.118;2022-08-01T01:44:46;9.93;;;6.82;;
23310;SDS011;11828;51.508;18.118;2022-08-01T01:47:16;8.85;;;6.15;;
23310;SDS011;11828;51.508;18.118;2022-08-01T01:49:43;10.27;;;6.43;;
23310;SDS011;11828;51.508;18.118;2022-08-01T01:52:15;8.85;;;6.22;;
23310;SDS011;11828;51.508;18.118;2022-08-01T01:54:44;9.63;;;6.40;;
23310;SDS011;11828;51.508;18.118;2022-08-01T01:57:14;7.88;;;5.85;;
23310;SDS011;11828;51.508;18.118;2022-08-01T01:59:42;7.32;;;5.45;;
23310;SDS011;11828;51.508;18.118;2022-08-01T02:02:11;9.48;;;6.00;;
23310;SDS011;11828;51.508;18.118;2022-08-01T02:04:40;9.73;;;6.35;;
23310;SDS011;11828;51.508;18.118;2022-08-01T02:07:09;8.07;;;6.30;;
23310;SDS011;11828;51.508;18.118;2022-08-01T02:09:39;10.32;;;6.93;;
23310;SDS011;11828;51.508;18.118;2022-08-01T02:12:07;9.10;;;6.45;;
23310;SDS011;11828;51.508;18.118;2022-08-01T02:14:37;9.07;;;6.22;;
23310;SDS011;11828;51.508;18.118;2022-08-01T02:17:05;10.85;;;6.82;;
23310;SDS011;11828;51.508;18.118;2022-08-01T02:19:32;12.20;;;8.65;;
23310;SDS011;11828;51.508;18.118;2022-08-01T02:22:06;11.50;;;7.97;;
23310;SDS011;11828;51.508;18.118;2022-08-01T02:27:34;7.95;;;5.30;;
23310;SDS011;11828;51.508;18.118;2022-08-01T02:30:12;9.98;;;5.35;;
23310;SDS011;11828;51.508;18.118;2022-08-01T02:32:49;6.60;;;4.97;;
23310;SDS011;11828;51.508;18.118;2022-08-01T02:35:23;7.43;;;5.18;;
23310;SDS011;11828;51.508;18.118;2022-08-01T02:37:57;9.45;;;5.78;;
23310;SDS011;11828;51.508;18.118;2022-08-01T02:40:27;8.98;;;5.43;;
23310;SDS011;11828;51.508;18.118;2022-08-01T02:42:58;11.73;;;6.20;;
23310;SDS011;11828;51.508;18.118;2022-08-01T02:45:28;9.43;;;5.60;;
23310;SDS011;11828;51.508;18.118;2022-08-01T02:48:06;9.40;;;5.13;;
23310;SDS011;11828;51.508;18.118;2022-08-01T02:50:36;6.75;;;5.13;;
23310;SDS011;11828;51.508;18.118;2022-08-01T02:53:04;8.38;;;5.40;;
23310;SDS011;11828;51.508;18.118;2022-08-01T02:55:32;7.63;;;5.28;;
23310;SDS011;11828;51.508;18.118;2022-08-01T02:58:00;10.93;;;5.50;;
23310;SDS011;11828;51.508;18.118;2022-08-01T03:00:27;9.60;;;6.05;;
23310;SDS011;11828;51.508;18.118;2022-08-01T03:02:55;9.38;;;6.43;;
23310;SDS011;11828;51.508;18.118;2022-08-01T03:05:24;11.98;;;6.57;;
23310;SDS011;11828;51.508;18.118;2022-08-01T03:07:51;8.55;;;6.60;;
23310;SDS011;11828;51.508;18.118;2022-08-01T03:10:18;11.07;;;7.00;;
23310;SDS011;11828;51.508;18.118;2022-08-01T03:12:45;9.77;;;6.68;;
23310;SDS011;11828;51.508;18.118;2022-08-01T03:15:14;12.25;;;7.20;;
23310;SDS011;11828;51.508;18.118;2022-08-01T03:17:42;8.85;;;6.57;;
23310;SDS011;11828;51.508;18.118;2022-08-01T03:20:11;10.70;;;7.25;;
23310;SDS011;11828;51.508;18.118;2022-08-01T03:22:40;10.38;;;7.38;;
23310;SDS011;11828;51.508;18.118;2022-08-01T03:25:09;10.52;;;7.25;;
23310;SDS011;11828;51.508;18.118;2022-08-01T03:27:38;11.85;;;6.90;;
23310;SDS011;11828;51.508;18.118;2022-08-01T03:30:07;11.15;;;7.10;;
23310;SDS011;11828;51.508;18.118;2022-08-01T03:32:35;10.60;;;7.10;;
23310;SDS011;11828;51.508;18.118;2022-08-01T03:35:02;10.25;;;7.50;;
23310;SDS011;11828;51.508;18.118;2022-08-01T03:38:01;9.70;;;7.30;;
23310;SDS011;11828;51.508;18.118;2022-08-01T03:40:23;11.93;;;7.45;;
23310;SDS011;11828;51.508;18.118;2022-08-01T03:43:07;14.80;;;7.88;;
23310;SDS011;11828;51.508;18.118;2022-08-01T03:45:45;12.77;;;9.05;;
23310;SDS011;11828;51.508;18.118;2022-08-01T03:48:16;13.38;;;9.23;;
23310;SDS011;11828;51.508;18.118;2022-08-01T03:50:46;11.55;;;7.75;;
23310;SDS011;11828;51.508;18.118;2022-08-01T03:53:18;10.80;;;7.70;;
23310;SDS011;11828;51.508;18.118;2022-08-01T03:55:49;10.45;;;7.90;;
23310;SDS011;11828;51.508;18.118;2022-08-01T03:58:16;13.40;;;9.25;;
23310;SDS011;11828;51.508;18.118;2022-08-01T04:00:42;12.18;;;8.85;;
23310;SDS011;11828;51.508;18.118;2022-08-01T04:03:10;12.68;;;9.23;;
23310;SDS011;11828;51.508;18.118;2022-08-01T04:05:40;11.48;;;8.63;;
23310;SDS011;11828;51.508;18.118;2022-08-01T04:08:07;11.77;;;8.38;;
23310;SDS011;11828;51.508;18.118;2022-08-01T04:10:33;12.38;;;7.88;;
23310;SDS011;11828;51.508;18.118;2022-08-01T04:13:00;12.30;;;8.88;;
23310;SDS011;11828;51.508;18.118;2022-08-01T04:15:26;11.20;;;8.70;;
23310;SDS011;11828;51.508;18.118;2022-08-01T04:17:52;14.45;;;9.48;;
23310;SDS011;11828;51.508;18.118;2022-08-01T04:20:19;12.77;;;9.32;;
23310;SDS011;11828;51.508;18.118;2022-08-01T04:22:46;13.35;;;8.40;;
23310;SDS011;11828;51.508;18.118;2022-08-01T04:25:14;12.35;;;8.25;;
23310;SDS011;11828;51.508;18.118;2022-08-01T04:27:46;10.48;;;7.63;;
23310;SDS011;11828;51.508;18.118;2022-08-01T04:30:16;12.27;;;8.40;;
23310;SDS011;11828;51.508;18.118;2022-08-01T04:32:52;11.68;;;7.53;;
23310;SDS011;11828;51.508;18.118;2022-08-01T04:35:21;8.98;;;6.57;;
23310;SDS011;11828;51.508;18.118;2022-08-01T04:37:47;7.93;;;6.72;;
23310;SDS011;11828;51.508;18.118;2022-08-01T04:40:16;12.30;;;7.55;;
23310;SDS011;11828;51.508;18.118;2022-08-01T04:42:43;9.68;;;6.75;;
23310;SDS011;11828;51.508;18.118;2022-08-01T04:45:09;11.20;;;7.63;;
23310;SDS011;11828;51.508;18.118;2022-08-01T04:47:36;9.73;;;7.60;;
23310;SDS011;11828;51.508;18.118;2022-08-01T04:50:06;10.18;;;7.07;;
23310;SDS011;11828;51.508;18.118;2022-08-01T04:52:34;12.18;;;7.00;;
23310;SDS011;11828;51.508;18.118;2022-08-01T04:55:01;10.38;;;7.15;;
23310;SDS011;11828;51.508;18.118;2022-08-01T04:57:34;9.60;;;7.63;;
23310;SDS011;11828;51.508;18.118;2022-08-01T05:00:03;11.80;;;7.55;;
23310;SDS011;11828;51.508;18.118;2022-08-01T05:02:31;11.02;;;6.80;;
23310;SDS011;11828;51.508;18.118;2022-08-01T05:04:59;9.95;;;6.38;;
23310;SDS011;11828;51.508;18.118;2022-08-01T05:07:25;9.88;;;8.27;;
23310;SDS011;11828;51.508;18.118;2022-08-01T05:09:51;11.20;;;8.27;;
23310;SDS011;11828;51.508;18.118;2022-08-01T05:12:17;9.18;;;7.03;;
23310;SDS011;11828;51.508;18.118;2022-08-01T05:14:43;9.52;;;6.57;;
23310;SDS011;11828;51.508;18.118;2022-08-01T05:17:11;12.20;;;7.68;;
23310;SDS011;11828;51.508;18.118;2022-08-01T05:19:37;7.95;;;6.43;;
23310;SDS011;11828;51.508;18.118;2022-08-01T05:22:06;12.00;;;8.40;;
23310;SDS011;11828;51.508;18.118;2022-08-01T05:24:35;8.82;;;7.07;;
23310;SDS011;11828;51.508;18.118;2022-08-01T05:27:04;7.57;;;6.15;;
23310;SDS011;11828;51.508;18.118;2022-08-01T05:29:33;10.48;;;6.63;;
23310;SDS011;11828;51.508;18.118;2022-08-01T05:31:59;8.75;;;6.05;;
23310;SDS011;11828;51.508;18.118;2022-08-01T05:34:26;7.95;;;5.72;;
23310;SDS011;11828;51.508;18.118;2022-08-01T05:36:53;6.63;;;5.25;;
23310;SDS011;11828;51.508;18.118;2022-08-01T05:39:19;7.80;;;5.63;;
23310;SDS011;11828;51.508;18.118;2022-08-01T05:41:45;8.00;;;6.57;;
23310;SDS011;11828;51.508;18.118;2022-08-01T05:44:11;7.78;;;6.00;;
23310;SDS011;11828;51.508;18.118;2022-08-01T05:46:37;5.88;;;4.95;;
23310;SDS011;11828;51.508;18.118;2022-08-01T05:49:04;6.00;;;4.60;;
23310;SDS011;11828;51.508;18.118;2022-08-01T05:51:30;4.78;;;3.97;;
23310;SDS011;11828;51.508;18.118;2022-08-01T05:53:57;5.65;;;4.35;;
23310;SDS011;11828;51.508;18.118;2022-08-01T05:56:24;5.50;;;4.25;;
23310;SDS011;11828;51.508;18.118;2022-08-01T05:58:50;7.45;;;4.13;;
23310;SDS011;11828;51.508;18.118;2022-08-01T06:01:17;5.57;;;4.43;;
23310;SDS011;11828;51.508;18.118;2022-08-01T06:03:44;4.32;;;3.88;;
23310;SDS011;11828;51.508;18.118;2022-08-01T06:06:10;5.82;;;4.43;;
23310;SDS011;11828;51.508;18.118;2022-08-01T06:08:36;8.55;;;4.80;;
23310;SDS011;11828;51.508;18.118;2022-08-01T06:11:02;4.38;;;3.78;;
23310;SDS011;11828;51.508;18.118;2022-08-01T06:13:28;6.57;;;5.05;;
23310;SDS011;11828;51.508;18.118;2022-08-01T06:15:55;5.55;;;5.05;;
23310;SDS011;11828;51.508;18.118;2022-08-01T06:18:21;6.53;;;4.55;;
23310;SDS011;11828;51.508;18.118;2022-08-01T06:20:47;6.30;;;5.18;;
23310;SDS011;11828;51.508;18.118;2022-08-01T06:23:13;4.57;;;4.18;;
23310;SDS011;11828;51.508;18.118;2022-08-01T06:25:41;4.68;;;4.18;;
23310;SDS011;11828;51.508;18.118;2022-08-01T06:28:08;6.85;;;4.40;;
23310;SDS011;11828;51.508;18.118;2022-08-01T06:30:34;4.25;;;3.80;;
23310;SDS011;11828;51.508;18.118;2022-08-01T06:33:01;5.07;;;4.07;;
23310;SDS011;11828;51.508;18.118;2022-08-01T06:35:28;4.93;;;4.43;;
23310;SDS011;11828;51.508;18.118;2022-08-01T06:37:55;6.28;;;4.78;;
23310;SDS011;11828;51.508;18.118;2022-08-01T06:40:22;4.93;;;3.80;;
23310;SDS011;11828;51.508;18.118;2022-08-01T06:42:49;4.65;;;4.00;;
23310;SDS011;11828;51.508;18.118;2022-08-01T06:45:16;6.00;;;4.47;;
23310;SDS011;11828;51.508;18.118;2022-08-01T06:47:43;5.38;;;4.30;;
23310;SDS011;11828;51.508;18.118;2022-08-01T06:50:10;4.55;;;3.58;;
23310;SDS011;11828;51.508;18.118;2022-08-01T06:52:37;4.68;;;3.50;;
23310;SDS011;11828;51.508;18.118;2022-08-01T06:55:03;4.13;;;3.70;;
23310;SDS011;11828;51.508;18.118;2022-08-01T06:57:30;9.50;;;4.68;;
23310;SDS011;11828;51.508;18.118;2022-08-01T06:59:57;5.47;;;3.70;;
23310;SDS011;11828;51.508;18.118;2022-08-01T07:02:26;5.35;;;4.47;;
23310;SDS011;11828;51.508;18.118;2022-08-01T07:04:52;6.70;;;5.15;;
23310;SDS011;11828;51.508;18.118;2022-08-01T07:07:18;6.25;;;5.00;;
23310;SDS011;11828;51.508;18.118;2022-08-01T07:09:44;5.60;;;4.40;;
23310;SDS011;11828;51.508;18.118;2022-08-01T07:12:10;8.65;;;5.60;;
23310;SDS011;11828;51.508;18.118;2022-08-01T07:14:36;6.35;;;4.45;;
23310;SDS011;11828;51.508;18.118;2022-08-01T07:17:02;7.38;;;5.35;;
23310;SDS011;11828;51.508;18.118;2022-08-01T07:19:28;5.63;;;4.35;;
23310;SDS011;11828;51.508;18.118;2022-08-01T07:21:54;6.35;;;4.18;;
23310;SDS011;11828;51.508;18.118;2022-08-01T07:24:20;7.95;;;4.53;;
23310;SDS011;11828;51.508;18.118;2022-08-01T07:26:48;9.25;;;4.35;;
23310;SDS011;11828;51.508;18.118;2022-08-01T07:29:14;8.48;;;4.75;;
23310;SDS011;11828;51.508;18.118;2022-08-01T07:31:40;6.45;;;5.13;;
23310;SDS011;11828;51.508;18.118;2022-08-01T07:34:06;6.57;;;4.90;;
23310;SDS011;11828;51.508;18.118;2022-08-01T07:36:33;6.32;;;4.57;;
23310;SDS011;11828;51.508;18.118;2022-08-01T07:38:59;8.40;;;4.40;;
23310;SDS011;11828;51.508;18.118;2022-08-01T07:41:25;8.02;;;5.43;;
23310;SDS011;11828;51.508;18.118;2022-08-01T07:43:51;9.23;;;4.55;;
23310;SDS011;11828;51.508;18.118;2022-08-01T07:46:17;4.95;;;4.22;;
23310;SDS011;11828;51.508;18.118;2022-08-01T07:48:43;9.80;;;5.72;;
23310;SDS011;11828;51.508;18.118;2022-08-01T07:51:10;4.20;;;3.78;;
23310;SDS011;11828;51.508;18.118;2022-08-01T07:53:36;8.02;;;4.20;;
23310;SDS011;11828;51.508;18.118;2022-08-01T07:56:03;4.72;;;4.20;;
23310;SDS011;11828;51.508;18.118;2022-08-01T07:58:33;4.65;;;4.10;;
23310;SDS011;11828;51.508;18.118;2022-08-01T08:00:59;6.57;;;4.50;;
23310;SDS011;11828;51.508;18.118;2022-08-01T08:03:25;5.22;;;4.53;;
23310;SDS011;11828;51.508;18.118;2022-08-01T08:05:52;6.78;;;4.55;;
23310;SDS011;11828;51.508;18.118;2022-08-01T08:08:18;5.10;;;4.60;;
23310;SDS011;11828;51.508;18.118;2022-08-01T08:10:44;6.07;;;4.60;;
23310;SDS011;11828;51.508;18.118;2022-08-01T08:13:10;4.57;;;3.97;;
23310;SDS011;11828;51.508;18.118;2022-08-01T08:15:36;5.55;;;3.80;;
23310;SDS011;11828;51.508;18.118;2022-08-01T08:18:03;5.78;;;5.28;;
23310;SDS011;11828;51.508;18.118;2022-08-01T08:20:30;5.70;;;5.10;;
23310;SDS011;11828;51.508;18.118;2022-08-01T08:22:56;5.20;;;4.40;;
23310;SDS011;11828;51.508;18.118;2022-08-01T08:25:24;4.07;;;3.67;;
23310;SDS011;11828;51.508;18.118;2022-08-01T08:27:51;4.85;;;4.35;;
23310;SDS011;11828;51.508;18.118;2022-08-01T08:30:17;4.95;;;4.43;;
23310;SDS011;11828;51.508;18.118;2022-08-01T08:32:44;6.35;;;4.60;;
23310;SDS011;11828;51.508;18.118;2022-08-01T08:35:10;6.35;;;4.47;;
23310;SDS011;11828;51.508;18.118;2022-08-01T08:37:37;4.60;;;3.75;;
23310;SDS011;11828;51.508;18.118;2022-08-01T08:40:03;5.35;;;4.85;;
23310;SDS011;11828;51.508;18.118;2022-08-01T08:42:31;5.05;;;4.50;;
23310;SDS011;11828;51.508;18.118;2022-08-01T08:44:57;5.10;;;4.55;;
23310;SDS011;11828;51.508;18.118;2022-08-01T08:47:23;5.55;;;4.40;;
23310;SDS011;11828;51.508;18.118;2022-08-01T08:49:52;4.70;;;4.20;;
23310;SDS011;11828;51.508;18.118;2022-08-01T08:52:20;7.72;;;4.10;;
23310;SDS011;11828;51.508;18.118;2022-08-01T08:54:48;6.65;;;4.85;;
23310;SDS011;11828;51.508;18.118;2022-08-01T08:57:17;4.65;;;4.22;;
23310;SDS011;11828;51.508;18.118;2022-08-01T08:59:45;5.75;;;4.47;;
23310;SDS011;11828;51.508;18.118;2022-08-01T09:02:12;4.82;;;4.30;;
23310;SDS011;11828;51.508;18.118;2022-08-01T09:04:38;4.82;;;4.32;;
23310;SDS011;11828;51.508;18.118;2022-08-01T09:07:05;5.70;;;5.15;;
23310;SDS011;11828;51.508;18.118;2022-08-01T09:09:33;6.97;;;5.70;;
23310;SDS011;11828;51.508;18.118;2022-08-01T09:12:00;5.72;;;5.13;;
23310;SDS011;11828;51.508;18.118;2022-08-01T09:14:26;5.90;;;5.18;;
23310;SDS011;11828;51.508;18.118;2022-08-01T09:17:13;5.95;;;5.03;;
23310;SDS011;11828;51.508;18.118;2022-08-01T09:19:41;5.40;;;4.90;;
23310;SDS011;11828;51.508;18.118;2022-08-01T09:22:13;7.57;;;5.22;;
23310;SDS011;11828;51.508;18.118;2022-08-01T09:24:58;5.43;;;4.93;;
23310;SDS011;11828;51.508;18.118;2022-08-01T09:27:32;5.43;;;4.88;;
23310;SDS011;11828;51.508;18.118;2022-08-01T09:30:15;7.00;;;4.70;;
23310;SDS011;11828;51.508;18.118;2022-08-01T09:35:38;5.50;;;5.00;;
23310;SDS011;11828;51.508;18.118;2022-08-01T09:43:20;6.57;;;5.03;;
23310;SDS011;11828;51.508;18.118;2022-08-01T09:45:48;5.90;;;5.15;;
23310;SDS011;11828;51.508;18.118;2022-08-01T09:48:15;6.82;;;5.30;;
23310;SDS011;11828;51.508;18.118;2022-08-01T09:50:47;6.00;;;5.40;;
23310;SDS011;11828;51.508;18.118;2022-08-01T09:53:18;6.82;;;5.35;;
23310;SDS011;11828;51.508;18.118;2022-08-01T09:55:44;6.30;;;5.70;;
23310;SDS011;11828;51.508;18.118;2022-08-01T09:58:11;5.75;;;5.22;;
23310;SDS011;11828;51.508;18.118;2022-08-01T10:00:38;6.07;;;5.47;;
23310;SDS011;11828;51.508;18.118;2022-08-01T10:03:24;5.63;;;5.13;;
23310;SDS011;11828;51.508;18.118;2022-08-01T10:05:52;5.75;;;5.25;;
23310;SDS011;11828;51.508;18.118;2022-08-01T10:08:19;5.72;;;5.22;;
23310;SDS011;11828;51.508;18.118;2022-08-01T10:11:07;5.65;;;5.15;;
23310;SDS011;11828;51.508;18.118;2022-08-01T10:13:36;5.50;;;5.00;;
23310;SDS011;11828;51.508;18.118;2022-08-01T10:16:02;6.30;;;5.68;;
23310;SDS011;11828;51.508;18.118;2022-08-01T10:18:31;7.22;;;5.78;;
23310;SDS011;11828;51.508;18.118;2022-08-01T10:21:00;6.20;;;5.60;;
23310;SDS011;11828;51.508;18.118;2022-08-01T10:23:28;6.10;;;5.47;;
23310;SDS011;11828;51.508;18.118;2022-08-01T10:26:00;6.07;;;5.47;;
23310;SDS011;11828;51.508;18.118;2022-08-01T10:28:27;5.50;;;5.00;;
23310;SDS011;11828;51.508;18.118;2022-08-01T10:30:58;6.10;;;5.25;;
23310;SDS011;11828;51.508;18.118;2022-08-01T10:33:25;5.75;;;5.25;;
23310;SDS011;11828;51.508;18.118;2022-08-01T10:35:51;5.88;;;5.35;;
23310;SDS011;11828;51.508;18.118;2022-08-01T10:38:17;5.82;;;5.32;;
23310;SDS011;11828;51.508;18.118;2022-08-01T10:40:43;5.47;;;4.97;;
23310;SDS011;11828;51.508;18.118;2022-08-01T10:43:10;6.78;;;5.22;;
23310;SDS011;11828;51.508;18.118;2022-08-01T10:45:39;5.30;;;4.80;;
23310;SDS011;11828;51.508;18.118;2022-08-01T10:51:06;6.03;;;5.40;;
23310;SDS011;11828;51.508;18.118;2022-08-01T10:53:33;5.43;;;4.60;;
23310;SDS011;11828;51.508;18.118;2022-08-01T10:56:00;5.28;;;4.78;;
23310;SDS011;11828;51.508;18.118;2022-08-01T10:58:37;5.60;;;5.10;;
23310;SDS011;11828;51.508;18.118;2022-08-01T11:01:19;5.65;;;5.13;;
23310;SDS011;11828;51.508;18.118;2022-08-01T11:03:58;6.40;;;5.00;;
23310;SDS011;11828;51.508;18.118;2022-08-01T11:06:39;8.13;;;5.93;;
23310;SDS011;11828;51.508;18.118;2022-08-01T11:12:11;5.50;;;5.00;;
23310;SDS011;11828;51.508;18.118;2022-08-01T11:20:24;5.57;;;4.97;;
23310;SDS011;11828;51.508;18.118;2022-08-01T11:30:46;5.40;;;4.90;;
23310;SDS011;11828;51.508;18.118;2022-08-01T11:34:05;4.90;;;4.50;;
23310;SDS011;11828;51.508;18.118;2022-08-01T11:38:45;4.70;;;4.30;;
23310;SDS011;11828;51.508;18.118;2022-08-01T11:41:27;5.45;;;4.13;;
23310;SDS011;11828;51.508;18.118;2022-08-01T11:44:12;5.55;;;5.05;;
23310;SDS011;11828;51.508;18.118;2022-08-01T11:54:40;4.90;;;4.50;;
23310;SDS011;11828;51.508;18.118;2022-08-01T11:57:19;4.47;;;4.10;;
23310;SDS011;11828;51.508;18.118;2022-08-01T11:59:51;4.85;;;4.40;;
23310;SDS011;11828;51.508;18.118;2022-08-01T12:02:22;5.10;;;4.65;;
23310;SDS011;11828;51.508;18.118;2022-08-01T12:04:59;15.02;;;9.50;;
23310;SDS011;11828;51.508;18.118;2022-08-01T12:07:31;6.50;;;5.50;;
23310;SDS011;11828;51.508;18.118;2022-08-01T12:10:20;5.47;;;4.97;;
23310;SDS011;11828;51.508;18.118;2022-08-01T12:12:54;5.28;;;4.78;;
23310;SDS011;11828;51.508;18.118;2022-08-01T12:15:28;5.00;;;4.35;;
23310;SDS011;11828;51.508;18.118;2022-08-01T12:18:01;4.60;;;4.20;;
23310;SDS011;11828;51.508;18.118;2022-08-01T12:20:32;7.00;;;4.40;;
23310;SDS011;11828;51.508;18.118;2022-08-01T12:23:02;11.43;;;7.43;;
23310;SDS011;11828;51.508;18.118;2022-08-01T12:25:32;7.00;;;5.60;;
23310;SDS011;11828;51.508;18.118;2022-08-01T12:28:01;4.80;;;4.40;;
23310;SDS011;11828;51.508;18.118;2022-08-01T12:30:29;4.75;;;4.30;;
23310;SDS011;11828;51.508;18.118;2022-08-01T12:32:56;4.40;;;4.00;;
23310;SDS011;11828;51.508;18.118;2022-08-01T12:35:24;4.97;;;4.13;;
23310;SDS011;11828;51.508;18.118;2022-08-01T12:37:58;5.00;;;4.13;;
23310;SDS011;11828;51.508;18.118;2022-08-01T12:40:34;3.67;;;3.38;;
23310;SDS011;11828;51.508;18.118;2022-08-01T12:43:07;3.90;;;3.60;;
23310;SDS011;11828;51.508;18.118;2022-08-01T12:48:09;4.65;;;3.55;;
23310;SDS011;11828;51.508;18.118;2022-08-01T12:50:39;4.13;;;3.75;;
23310;SDS011;11828;51.508;18.118;2022-08-01T12:53:09;3.95;;;3.55;;
23310;SDS011;11828;51.508;18.118;2022-08-01T12:55:45;3.65;;;3.35;;
23310;SDS011;11828;51.508;18.118;2022-08-01T12:58:17;4.00;;;3.60;;
23310;SDS011;11828;51.508;18.118;2022-08-01T13:00:45;3.33;;;3.13;;
23310;SDS011;11828;51.508;18.118;2022-08-01T13:03:14;3.35;;;3.10;;
23310;SDS011;11828;51.508;18.118;2022-08-01T13:05:53;3.28;;;3.00;;
23310;SDS011;11828;51.508;18.118;2022-08-01T13:08:22;3.92;;;3.53;;
23310;SDS011;11828;51.508;18.118;2022-08-01T13:11:00;4.03;;;3.72;;
23310;SDS011;11828;51.508;18.118;2022-08-01T13:16:13;4.82;;;4.00;;
23310;SDS011;11828;51.508;18.118;2022-08-01T13:18:50;4.28;;;3.90;;
23310;SDS011;11828;51.508;18.118;2022-08-01T13:21:19;4.07;;;3.70;;
23310;SDS011;11828;51.508;18.118;2022-08-01T13:26:39;3.90;;;3.60;;
23310;SDS011;11828;51.508;18.118;2022-08-01T13:29:15;4.35;;;4.00;;
23310;SDS011;11828;51.508;18.118;2022-08-01T13:31:44;4.13;;;3.83;;
23310;SDS011;11828;51.508;18.118;2022-08-01T13:34:10;5.10;;;4.05;;
23310;SDS011;11828;51.508;18.118;2022-08-01T13:36:37;4.40;;;4.00;;
23310;SDS011;11828;51.508;18.118;2022-08-01T13:39:04;4.50;;;4.10;;
23310;SDS011;11828;51.508;18.118;2022-08-01T13:41:49;4.10;;;3.70;;
23310;SDS011;11828;51.508;18.118;2022-08-01T13:44:16;3.90;;;3.60;;
23310;SDS011;11828;51.508;18.118;2022-08-01T13:46:43;4.40;;;3.88;;
23310;SDS011;11828;51.508;18.118;2022-08-01T13:49:12;4.40;;;4.00;;
23310;SDS011;11828;51.508;18.118;2022-08-01T13:51:39;5.22;;;3.67;;
23310;SDS011;11828;51.508;18.118;2022-08-01T13:54:05;4.28;;;3.88;;
23310;SDS011;11828;51.508;18.118;2022-08-01T13:56:32;5.97;;;4.05;;
23310;SDS011;11828;51.508;18.118;2022-08-01T13:58:58;4.10;;;3.70;;
23310;SDS011;11828;51.508;18.118;2022-08-01T14:01:25;5.28;;;4.28;;
23310;SDS011;11828;51.508;18.118;2022-08-01T14:03:51;4.88;;;3.70;;
23310;SDS011;11828;51.508;18.118;2022-08-01T14:06:18;4.15;;;3.85;;
23310;SDS011;11828;51.508;18.118;2022-08-01T14:08:46;3.78;;;3.47;;
23310;SDS011;11828;51.508;18.118;2022-08-01T14:11:13;3.67;;;3.38;;
23310;SDS011;11828;51.508;18.118;2022-08-01T14:13:39;3.63;;;3.30;;
23310;SDS011;11828;51.508;18.118;2022-08-01T14:16:06;3.30;;;3.00;;
23310;SDS011;11828;51.508;18.118;2022-08-01T14:18:32;4.18;;;3.30;;
23310;SDS011;11828;51.508;18.118;2022-08-01T14:20:59;5.28;;;3.95;;
23310;SDS011;11828;51.508;18.118;2022-08-01T14:23:25;3.47;;;3.17;;
23310;SDS011;11828;51.508;18.118;2022-08-01T14:25:51;3.40;;;3.10;;
23310;SDS011;11828;51.508;18.118;2022-08-01T14:28:18;3.17;;;2.90;;
23310;SDS011;11828;51.508;18.118;2022-08-01T14:30:44;3.08;;;2.88;;
23310;SDS011;11828;51.508;18.118;2022-08-01T14:33:11;3.67;;;3.25;;
23310;SDS011;11828;51.508;18.118;2022-08-01T14:35:38;3.80;;;3.38;;
23310;SDS011;11828;51.508;18.118;2022-08-01T14:38:05;2.80;;;2.60;;
23310;SDS011;11828;51.508;18.118;2022-08-01T14:40:33;3.20;;;2.90;;
23310;SDS011;11828;51.508;18.118;2022-08-01T14:43:00;3.72;;;2.67;;
23310;SDS011;11828;51.508;18.118;2022-08-01T14:45:26;3.00;;;2.70;;
23310;SDS011;11828;51.508;18.118;2022-08-01T14:47:53;4.93;;;3.58;;
23310;SDS011;11828;51.508;18.118;2022-08-01T14:50:19;3.28;;;3.00;;
23310;SDS011;11828;51.508;18.118;2022-08-01T14:52:46;3.58;;;3.28;;
23310;SDS011;11828;51.508;18.118;2022-08-01T14:55:12;3.30;;;3.00;;
23310;SDS011;11828;51.508;18.118;2022-08-01T14:57:39;3.17;;;2.97;;
23310;SDS011;11828;51.508;18.118;2022-08-01T15:00:06;5.25;;;3.10;;
23310;SDS011;11828;51.508;18.118;2022-08-01T15:02:38;3.45;;;3.15;;
23310;SDS011;11828;51.508;18.118;2022-08-01T15:05:05;3.40;;;3.10;;
23310;SDS011;11828;51.508;18.118;2022-08-01T15:07:32;3.63;;;3.28;;
23310;SDS011;11828;51.508;18.118;2022-08-01T15:09:58;4.05;;;2.83;;
23310;SDS011;11828;51.508;18.118;2022-08-01T15:12:25;3.22;;;2.58;;
23310;SDS011;11828;51.508;18.118;2022-08-01T15:14:51;3.10;;;2.80;;
23310;SDS011;11828;51.508;18.118;2022-08-01T15:19:55;3.85;;;3.55;;
23310;SDS011;11828;51.508;18.118;2022-08-01T15:22:30;5.38;;;3.42;;
23310;SDS011;11828;51.508;18.118;2022-08-01T15:24:57;4.15;;;3.75;;
23310;SDS011;11828;51.508;18.118;2022-08-01T15:27:25;3.80;;;3.50;;
23310;SDS011;11828;51.508;18.118;2022-08-01T15:29:52;3.22;;;2.95;;
23310;SDS011;11828;51.508;18.118;2022-08-01T15:32:21;3.10;;;2.90;;
23310;SDS011;11828;51.508;18.118;2022-08-01T15:34:47;3.72;;;2.60;;
23310;SDS011;11828;51.508;18.118;2022-08-01T15:37:13;3.05;;;2.80;;
23310;SDS011;11828;51.508;18.118;2022-08-01T15:39:40;3.10;;;2.90;;
23310;SDS011;11828;51.508;18.118;2022-08-01T15:42:08;3.60;;;3.30;;
23310;SDS011;11828;51.508;18.118;2022-08-01T15:44:37;3.22;;;2.92;;
23310;SDS011;11828;51.508;18.118;2022-08-01T15:47:04;5.18;;;3.08;;
23310;SDS011;11828;51.508;18.118;2022-08-01T15:49:31;5.18;;;3.22;;